createdAt,value
2023-01-13T00:01:29.110Z,3.58
2023-01-13T00:03:57.926Z,3.05
2023-01-13T00:06:29.843Z,2.70
2023-01-13T00:08:58.475Z,3.17
2023-01-13T00:11:27.685Z,3.03
2023-01-13T00:13:57.700Z,2.80
2023-01-13T00:16:46.870Z,3.25
2023-01-13T00:19:15.119Z,3.50
2023-01-13T00:21:43.966Z,3.75
2023-01-13T00:24:12.617Z,3.10
2023-01-13T00:26:40.886Z,3.97
2023-01-13T00:29:10.584Z,3.85
2023-01-13T00:31:41.172Z,2.65
2023-01-13T00:34:09.434Z,2.85
2023-01-13T00:36:40.172Z,5.85
2023-01-13T00:39:12.980Z,3.88
2023-01-13T00:42:02.224Z,3.40
2023-01-13T00:44:32.073Z,3.45
2023-01-13T00:47:00.900Z,3.30
2023-01-13T00:49:29.143Z,4.25
2023-01-13T00:52:00.182Z,3.45
2023-01-13T00:54:28.624Z,4.22
2023-01-13T00:56:59.921Z,4.03
2023-01-13T00:59:30.737Z,3.38
2023-01-13T01:02:00.486Z,3.83
2023-01-13T01:04:28.985Z,3.47
2023-01-13T01:07:00.188Z,3.45
2023-01-13T01:09:34.654Z,3.92
2023-01-13T01:12:03.191Z,3.88
2023-01-13T01:14:31.939Z,4.22
2023-01-13T01:17:04.141Z,3.95
2023-01-13T01:19:32.472Z,3.05
2023-01-13T01:22:00.845Z,3.28
2023-01-13T01:24:29.133Z,3.00
2023-01-13T01:26:57.455Z,3.55
2023-01-13T01:29:25.684Z,2.80
2023-01-13T01:31:56.412Z,3.90
2023-01-13T01:34:26.249Z,4.07
2023-01-13T01:36:54.493Z,3.92
2023-01-13T01:39:22.871Z,3.03
2023-01-13T01:42:18.392Z,2.95
2023-01-13T01:44:54.117Z,3.15
2023-01-13T01:47:23.516Z,3.20
2023-01-13T01:49:59.919Z,3.28
2023-01-13T01:52:29.579Z,4.45
2023-01-13T01:55:00.982Z,3.53
2023-01-13T01:57:31.853Z,3.28
2023-01-13T02:00:03.735Z,4.65
2023-01-13T02:02:45.024Z,3.97
2023-01-13T02:05:14.961Z,3.67
2023-01-13T02:07:44.645Z,3.05
2023-01-13T02:10:14.347Z,3.50
2023-01-13T02:12:43.495Z,4.07
2023-01-13T02:15:17.890Z,3.85
2023-01-13T02:17:58.038Z,3.75
2023-01-13T02:20:37.309Z,4.70
2023-01-13T02:23:49.737Z,3.65
2023-01-13T02:26:33.269Z,3.38
2023-01-13T02:29:29.210Z,4.78
2023-01-13T02:32:03.226Z,3.33
2023-01-13T02:34:37.453Z,3.88
2023-01-13T02:37:08.644Z,3.20
2023-01-13T02:39:39.095Z,5.03
2023-01-13T02:42:38.822Z,3.72
2023-01-13T02:45:09.553Z,3.78
2023-01-13T02:47:47.636Z,2.95
2023-01-13T02:50:21.415Z,3.15
2023-01-13T02:52:52.457Z,4.50
2023-01-13T02:55:23.701Z,2.85
2023-01-13T02:57:52.867Z,2.60
2023-01-13T03:00:21.361Z,3.25
2023-01-13T03:02:51.125Z,2.95
2023-01-13T03:05:19.751Z,2.83
2023-01-13T03:07:59.341Z,3.58
2023-01-13T03:10:35.882Z,3.22
2023-01-13T03:13:08.821Z,3.58
2023-01-13T03:15:40.702Z,4.63
2023-01-13T03:18:18.256Z,3.70
2023-01-13T03:20:58.358Z,4.05
2023-01-13T03:23:32.053Z,3.72
2023-01-13T03:26:03.895Z,2.65
2023-01-13T03:28:34.970Z,3.60
2023-01-13T03:31:07.626Z,2.55
2023-01-13T03:33:41.513Z,3.03
2023-01-13T03:36:10.952Z,3.45
2023-01-13T03:38:41.775Z,2.60
2023-01-13T03:41:14.170Z,3.70
2023-01-13T03:44:01.846Z,2.60
2023-01-13T03:46:32.802Z,3.13
2023-01-13T03:49:04.524Z,2.25
2023-01-13T03:51:33.941Z,3.00
2023-01-13T03:54:09.026Z,2.92
2023-01-13T03:56:44.273Z,1.55
2023-01-13T03:59:15.293Z,2.08
2023-01-13T04:01:47.939Z,3.58
2023-01-13T04:04:21.525Z,2.08
2023-01-13T04:06:52.471Z,1.73
2023-01-13T04:09:23.129Z,1.83
2023-01-13T04:11:55.333Z,2.55
2023-01-13T04:14:26.489Z,2.30
2023-01-13T04:17:03.850Z,1.77
2023-01-13T04:19:33.930Z,1.70
2023-01-13T04:22:04.571Z,2.15
2023-01-13T04:24:32.849Z,1.73
2023-01-13T04:27:03.344Z,1.25
2023-01-13T04:29:32.119Z,1.17
2023-01-13T04:32:00.568Z,1.02
2023-01-13T04:34:30.262Z,2.15
2023-01-13T04:36:59.986Z,2.15
2023-01-13T04:39:28.455Z,1.75
2023-01-13T04:41:59.694Z,1.23
2023-01-13T04:44:35.406Z,1.40
2023-01-13T04:47:06.042Z,1.13
2023-01-13T04:49:36.689Z,1.48
2023-01-13T04:52:07.250Z,2.05
2023-01-13T04:54:35.494Z,1.70
2023-01-13T04:57:03.740Z,1.95
2023-01-13T04:59:33.952Z,1.50
2023-01-13T05:02:09.118Z,1.20
2023-01-13T05:04:42.173Z,1.45
2023-01-13T05:07:14.221Z,1.42
2023-01-13T05:09:44.415Z,1.77
2023-01-13T05:12:40.429Z,1.88
2023-01-13T05:15:38.330Z,1.40
2023-01-13T05:18:11.456Z,2.55
2023-01-13T05:20:39.941Z,1.42
2023-01-13T05:23:27.327Z,3.00
2023-01-13T05:25:55.769Z,2.10
2023-01-13T05:28:26.233Z,1.45
2023-01-13T05:30:54.539Z,2.50
2023-01-13T05:33:22.941Z,1.85
2023-01-13T05:35:51.236Z,1.92
2023-01-13T05:38:23.149Z,1.55
2023-01-13T05:41:10.898Z,3.10
2023-01-13T05:43:39.113Z,1.70
2023-01-13T05:46:08.747Z,2.10
2023-01-13T05:48:38.375Z,2.53
2023-01-13T05:51:07.734Z,1.80
2023-01-13T05:53:37.717Z,2.63
2023-01-13T05:56:08.577Z,1.88
2023-01-13T05:58:39.464Z,2.28
2023-01-13T06:01:09.269Z,1.92
2023-01-13T06:03:37.940Z,2.17
2023-01-13T06:06:08.833Z,2.28
2023-01-13T06:08:40.886Z,2.05
2023-01-13T06:11:09.349Z,1.85
2023-01-13T06:13:37.721Z,2.67
2023-01-13T06:16:06.439Z,1.73
2023-01-13T06:18:34.865Z,2.17
2023-01-13T06:21:03.190Z,2.72
2023-01-13T06:23:35.060Z,1.63
2023-01-13T06:26:07.207Z,1.33
2023-01-13T06:28:38.221Z,1.55
2023-01-13T06:31:10.367Z,2.78
2023-01-13T06:33:39.693Z,2.15
2023-01-13T06:36:09.315Z,2.20
2023-01-13T06:38:41.529Z,2.55
2023-01-13T06:41:11.392Z,1.92
2023-01-13T06:43:39.207Z,1.88
2023-01-13T06:46:07.677Z,1.98
2023-01-13T06:48:36.318Z,2.75
2023-01-13T06:51:04.650Z,2.10
2023-01-13T06:53:32.950Z,2.30
2023-01-13T06:56:01.639Z,2.72
2023-01-13T06:58:31.572Z,2.40
2023-01-13T07:01:01.805Z,2.15
2023-01-13T07:03:30.555Z,3.17
2023-01-13T07:06:02.183Z,2.67
2023-01-13T07:08:30.723Z,1.83
2023-01-13T07:10:59.070Z,1.98
2023-01-13T07:13:44.855Z,2.25
2023-01-13T07:16:14.525Z,2.30
2023-01-13T07:18:45.111Z,2.75
2023-01-13T07:21:18.868Z,2.25
2023-01-13T07:23:54.769Z,2.13
2023-01-13T07:26:23.067Z,1.85
2023-01-13T07:28:51.333Z,2.03
2023-01-13T07:31:21.838Z,2.40
2023-01-13T07:33:50.102Z,1.95
2023-01-13T07:36:18.471Z,2.83
2023-01-13T07:38:46.744Z,2.25
2023-01-13T07:41:29.635Z,2.33
2023-01-13T07:43:58.640Z,2.30
2023-01-13T07:46:28.692Z,2.20
2023-01-13T07:48:56.884Z,1.90
2023-01-13T07:51:29.946Z,2.08
2023-01-13T07:54:00.782Z,1.85
2023-01-13T07:56:29.091Z,2.03
2023-01-13T07:58:57.428Z,2.75
2023-01-13T08:01:27.774Z,1.90
2023-01-13T08:03:58.856Z,2.72
2023-01-13T08:06:31.122Z,3.03
2023-01-13T08:09:00.174Z,2.42
2023-01-13T08:11:30.878Z,2.22
2023-01-13T08:14:01.915Z,2.35
2023-01-13T08:16:32.840Z,2.70
2023-01-13T08:19:03.103Z,2.45
2023-01-13T08:21:34.036Z,2.40
2023-01-13T08:24:04.677Z,2.65
2023-01-13T08:26:35.308Z,2.30
2023-01-13T08:29:06.061Z,2.10
2023-01-13T08:31:41.581Z,3.08
2023-01-13T08:34:11.412Z,2.30
2023-01-13T08:36:39.900Z,2.88
2023-01-13T08:39:08.109Z,3.00
2023-01-13T08:41:54.112Z,3.17
2023-01-13T08:44:22.481Z,2.55
2023-01-13T08:46:53.440Z,2.35
2023-01-13T08:49:23.492Z,2.97
2023-01-13T08:51:51.988Z,3.35
2023-01-13T08:54:22.965Z,3.03
2023-01-13T08:56:53.726Z,2.42
2023-01-13T08:59:22.289Z,1.65
2023-01-13T09:01:50.836Z,3.00
2023-01-13T09:04:21.050Z,3.45
2023-01-13T09:06:51.701Z,2.70
2023-01-13T09:09:19.935Z,1.88
2023-01-13T09:12:14.093Z,3.05
2023-01-13T09:14:44.860Z,2.45
2023-01-13T09:17:15.402Z,2.50
2023-01-13T09:19:51.090Z,2.35
2023-01-13T09:22:21.192Z,2.72
2023-01-13T09:24:52.058Z,1.80
2023-01-13T09:27:23.039Z,2.40
2023-01-13T09:29:51.403Z,2.17
2023-01-13T09:32:24.497Z,2.30
2023-01-13T09:35:00.896Z,2.35
2023-01-13T09:37:34.411Z,2.10
2023-01-13T09:40:03.059Z,3.10
2023-01-13T09:42:55.245Z,3.58
2023-01-13T09:45:27.797Z,2.25
2023-01-13T09:47:58.644Z,1.88
2023-01-13T09:50:30.993Z,3.17
2023-01-13T09:53:00.806Z,2.58
2023-01-13T09:55:31.662Z,2.22
2023-01-13T09:58:04.502Z,3.03
2023-01-13T10:00:39.087Z,2.17
2023-01-13T10:03:14.035Z,1.83
2023-01-13T10:05:49.357Z,2.13
2023-01-13T10:08:25.820Z,1.88
2023-01-13T10:10:57.818Z,2.13
2023-01-13T10:13:28.659Z,2.67
2023-01-13T10:16:11.976Z,2.60
2023-01-13T10:18:50.541Z,2.35
2023-01-13T10:21:35.857Z,2.33
2023-01-13T10:24:08.178Z,2.50
2023-01-13T10:26:45.757Z,2.65
2023-01-13T10:29:24.627Z,2.08
2023-01-13T10:31:53.461Z,2.45
2023-01-13T10:34:24.360Z,1.70
2023-01-13T10:37:00.116Z,2.05
2023-01-13T10:39:30.547Z,1.83
2023-01-13T10:42:05.628Z,2.17
2023-01-13T10:44:33.988Z,1.77
2023-01-13T10:47:04.636Z,1.92
2023-01-13T10:49:36.336Z,1.33
2023-01-13T10:52:05.200Z,2.03
2023-01-13T10:54:38.974Z,2.00
2023-01-13T10:57:29.859Z,2.03
2023-01-13T11:00:00.147Z,2.35
2023-01-13T11:02:30.045Z,2.03
2023-01-13T11:05:04.509Z,1.58
2023-01-13T11:07:34.550Z,2.00
2023-01-13T11:10:08.187Z,1.92
2023-01-13T11:12:39.946Z,1.35
2023-01-13T11:15:11.531Z,2.13
2023-01-13T11:17:45.534Z,1.65
2023-01-13T11:20:17.489Z,1.75
2023-01-13T11:22:47.488Z,1.25
2023-01-13T11:25:19.985Z,2.53
2023-01-13T11:27:52.377Z,1.98
2023-01-13T11:30:23.993Z,1.60
2023-01-13T11:33:01.806Z,1.70
2023-01-13T11:35:31.493Z,1.85
2023-01-13T11:38:02.547Z,1.67
2023-01-13T11:40:36.171Z,2.80
2023-01-13T11:43:08.905Z,1.80
2023-01-13T11:45:41.891Z,2.65
2023-01-13T11:48:14.606Z,2.72
2023-01-13T11:50:44.538Z,1.98
2023-01-13T11:53:22.638Z,1.98
2023-01-13T11:55:57.593Z,1.55
2023-01-13T11:58:49.946Z,1.25
2023-01-13T12:01:27.068Z,2.08
2023-01-13T12:04:01.864Z,1.80
2023-01-13T12:06:36.103Z,1.40
2023-01-13T12:09:18.497Z,1.15
2023-01-13T12:12:13.036Z,1.08
2023-01-13T12:14:47.861Z,1.75
2023-01-13T12:17:20.154Z,1.65
2023-01-13T12:19:55.704Z,1.52
2023-01-13T12:22:29.857Z,1.60
2023-01-13T12:25:03.946Z,1.77
2023-01-13T12:27:39.299Z,2.25
2023-01-13T12:30:18.657Z,2.40
2023-01-13T12:32:49.459Z,1.88
2023-01-13T12:35:34.651Z,1.65
2023-01-13T12:38:05.469Z,2.00
2023-01-13T12:40:43.755Z,1.70
2023-01-13T12:43:34.829Z,2.67
2023-01-13T12:46:26.268Z,1.33
2023-01-13T12:49:09.756Z,1.88
2023-01-13T12:51:40.112Z,1.55
2023-01-13T12:54:30.823Z,1.85
2023-01-13T12:56:59.765Z,1.65
2023-01-13T12:59:49.077Z,1.00
2023-01-13T13:02:32.378Z,1.52
2023-01-13T13:05:21.628Z,1.67
2023-01-13T13:07:52.495Z,1.40
2023-01-13T13:10:27.399Z,1.65
2023-01-13T13:13:17.647Z,1.58
2023-01-13T13:15:46.401Z,1.23
2023-01-13T13:18:28.611Z,1.10
2023-01-13T13:20:58.878Z,2.80
2023-01-13T13:23:47.960Z,1.60
2023-01-13T13:26:24.743Z,1.38
2023-01-13T13:29:19.526Z,1.60
2023-01-13T13:32:08.918Z,1.10
2023-01-13T13:34:41.318Z,1.92
2023-01-13T13:37:29.993Z,2.08
2023-01-13T13:40:16.310Z,1.73
2023-01-13T13:43:03.259Z,1.90
2023-01-13T13:45:51.848Z,1.85
2023-01-13T13:48:20.720Z,1.63
2023-01-13T13:51:00.407Z,2.60
2023-01-13T13:53:30.013Z,1.48
2023-01-13T13:56:00.668Z,1.63
2023-01-13T13:58:33.580Z,1.38
2023-01-13T14:01:04.790Z,1.33
2023-01-13T14:03:34.397Z,1.70
2023-01-13T14:06:05.581Z,1.35
2023-01-13T14:08:36.047Z,1.50
2023-01-13T14:11:18.199Z,2.17
2023-01-13T14:13:49.167Z,1.58
2023-01-13T14:16:17.639Z,1.60
2023-01-13T14:18:49.107Z,1.45
2023-01-13T14:21:22.037Z,1.75
2023-01-13T14:23:52.508Z,1.60
2023-01-13T14:26:24.955Z,1.98
2023-01-13T14:28:53.693Z,3.00
2023-01-13T14:31:22.028Z,2.22
2023-01-13T14:33:54.066Z,1.30
2023-01-13T14:36:24.645Z,2.85
2023-01-13T14:39:14.918Z,1.48
2023-01-13T14:41:47.108Z,1.60
2023-01-13T14:44:22.646Z,1.45
2023-01-13T14:46:51.043Z,1.40
2023-01-13T14:49:24.798Z,1.35
2023-01-13T14:51:55.023Z,1.77
2023-01-13T14:54:53.451Z,1.05
2023-01-13T14:57:28.554Z,1.80
2023-01-13T15:00:02.451Z,1.60
2023-01-13T15:02:51.177Z,1.80
2023-01-13T15:05:34.487Z,2.20
2023-01-13T15:08:05.672Z,1.80
2023-01-13T15:10:37.288Z,1.92
2023-01-13T15:13:07.241Z,1.60
2023-01-13T15:15:39.148Z,1.77
2023-01-13T15:18:11.745Z,2.15
2023-01-13T15:20:42.014Z,2.47
2023-01-13T15:23:14.440Z,1.77
2023-01-13T15:25:45.667Z,1.52
2023-01-13T15:28:20.561Z,1.90
2023-01-13T15:30:49.291Z,1.50
2023-01-13T15:33:17.642Z,1.60
2023-01-13T15:35:47.699Z,1.67
2023-01-13T15:38:20.907Z,1.40
2023-01-13T15:40:52.829Z,1.60
2023-01-13T15:43:40.081Z,1.27
2023-01-13T15:46:34.966Z,1.73
2023-01-13T15:49:12.746Z,1.58
2023-01-13T15:51:48.320Z,1.80
2023-01-13T15:54:24.400Z,1.33
2023-01-13T15:56:53.511Z,2.00
2023-01-13T15:59:27.839Z,1.95
2023-01-13T16:01:56.187Z,2.38
2023-01-13T16:04:24.440Z,1.60
2023-01-13T16:06:52.799Z,1.63
2023-01-13T16:09:29.695Z,2.22
2023-01-13T16:11:57.926Z,2.15
2023-01-13T16:14:26.707Z,1.40
2023-01-13T16:16:55.021Z,2.30
2023-01-13T16:19:25.692Z,1.50
2023-01-13T16:21:54.097Z,1.50
2023-01-13T16:24:26.036Z,1.00
2023-01-13T16:26:54.362Z,1.42
2023-01-13T16:29:22.653Z,1.10
2023-01-13T16:31:51.009Z,1.63
2023-01-13T16:34:19.354Z,1.88
2023-01-13T16:36:47.693Z,1.88
2023-01-13T16:39:24.438Z,2.13
2023-01-13T16:41:57.321Z,1.38
2023-01-13T16:44:27.605Z,1.38
2023-01-13T16:46:55.986Z,1.67
2023-01-13T16:49:24.476Z,1.20
2023-01-13T16:51:52.847Z,1.63
2023-01-13T16:54:21.222Z,1.70
2023-01-13T16:56:49.442Z,1.23
2023-01-13T16:59:19.036Z,1.50
2023-01-13T17:01:49.487Z,3.17
2023-01-13T17:04:19.232Z,1.27
2023-01-13T17:06:52.858Z,1.23
2023-01-13T17:09:22.430Z,2.33
2023-01-13T17:11:50.793Z,1.42
2023-01-13T17:14:23.189Z,1.40
2023-01-13T17:16:52.587Z,1.00
2023-01-13T17:19:22.383Z,2.20
2023-01-13T17:21:51.393Z,1.42
2023-01-13T17:24:24.655Z,1.98
2023-01-13T17:26:57.902Z,1.27
2023-01-13T17:29:27.749Z,1.67
2023-01-13T17:31:56.333Z,1.15
2023-01-13T17:34:24.548Z,1.38
2023-01-13T17:36:52.910Z,1.35
2023-01-13T17:39:22.036Z,1.52
2023-01-13T17:41:52.653Z,1.65
2023-01-13T17:44:22.909Z,1.33
2023-01-13T17:46:52.704Z,1.33
2023-01-13T17:49:21.921Z,1.65
2023-01-13T17:51:51.401Z,1.95
2023-01-13T17:54:20.217Z,0.95
2023-01-13T17:56:48.515Z,1.55
2023-01-13T17:59:17.849Z,1.15
2023-01-13T18:01:46.330Z,1.30
2023-01-13T18:04:17.451Z,1.52
2023-01-13T18:06:46.113Z,1.48
2023-01-13T18:09:14.336Z,1.13
2023-01-13T18:11:42.536Z,1.13
2023-01-13T18:14:11.184Z,0.98
2023-01-13T18:16:39.552Z,1.70
2023-01-13T18:19:25.696Z,1.52
2023-01-13T18:22:19.576Z,2.03
2023-01-13T18:25:07.405Z,1.00
2023-01-13T18:27:36.625Z,1.95
2023-01-13T18:30:06.581Z,2.17
2023-01-13T18:32:35.302Z,1.40
2023-01-13T18:35:06.954Z,1.73
2023-01-13T18:37:38.745Z,1.75
2023-01-13T18:40:09.297Z,1.45
2023-01-13T18:42:54.028Z,1.25
2023-01-13T18:45:24.203Z,1.20
2023-01-13T18:47:52.507Z,2.00
2023-01-13T18:50:21.554Z,1.45
2023-01-13T18:52:51.381Z,1.65
2023-01-13T18:55:19.856Z,0.95
2023-01-13T18:57:48.402Z,1.40
2023-01-13T19:00:17.906Z,1.42
2023-01-13T19:02:47.200Z,1.30
2023-01-13T19:05:15.514Z,1.05
2023-01-13T19:07:50.553Z,1.65
2023-01-13T19:10:21.019Z,1.58
2023-01-13T19:12:49.401Z,1.52
2023-01-13T19:15:17.762Z,0.90
2023-01-13T19:17:46.732Z,1.08
2023-01-13T19:20:15.088Z,1.52
2023-01-13T19:22:43.297Z,2.03
2023-01-13T19:25:11.761Z,1.38
2023-01-13T19:27:42.700Z,1.73
2023-01-13T19:30:11.620Z,1.17
2023-01-13T19:32:39.915Z,1.40
2023-01-13T19:35:08.752Z,1.55
2023-01-13T19:37:38.266Z,1.30
2023-01-13T19:40:09.330Z,1.42
2023-01-13T19:42:55.357Z,1.38
2023-01-13T19:45:28.557Z,1.65
2023-01-13T19:47:58.204Z,1.60
2023-01-13T19:50:27.073Z,1.73
2023-01-13T19:52:55.457Z,1.30
2023-01-13T19:55:24.209Z,1.45
2023-01-13T19:57:52.671Z,1.90
2023-01-13T20:00:21.924Z,1.92
2023-01-13T20:02:53.250Z,1.40
2023-01-13T20:05:22.802Z,1.50
2023-01-13T20:07:51.487Z,1.20
2023-01-13T20:10:20.835Z,1.33
2023-01-13T20:12:49.152Z,1.63
2023-01-13T20:15:17.452Z,1.25
2023-01-13T20:17:45.827Z,1.27
2023-01-13T20:20:15.967Z,1.95
2023-01-13T20:22:44.347Z,1.88
2023-01-13T20:25:16.525Z,1.58
2023-01-13T20:27:45.137Z,1.30
2023-01-13T20:30:14.464Z,1.23
2023-01-13T20:32:43.100Z,1.00
2023-01-13T20:35:11.638Z,1.55
2023-01-13T20:37:41.873Z,1.35
2023-01-13T20:40:12.547Z,1.65
2023-01-13T20:42:44.664Z,1.50
2023-01-13T20:45:16.914Z,1.33
2023-01-13T20:47:45.215Z,1.40
2023-01-13T20:50:13.847Z,1.23
2023-01-13T20:52:43.658Z,1.20
2023-01-13T20:55:12.623Z,1.70
2023-01-13T20:57:40.959Z,1.33
2023-01-13T21:00:10.210Z,1.48
2023-01-13T21:02:40.350Z,1.30
2023-01-13T21:05:09.265Z,1.63
2023-01-13T21:07:37.468Z,1.30
2023-01-13T21:10:07.947Z,1.48
2023-01-13T21:12:54.107Z,1.77
2023-01-13T21:15:22.830Z,1.30
2023-01-13T21:18:09.836Z,1.38
2023-01-13T21:20:38.980Z,1.83
2023-01-13T21:23:07.244Z,1.70
2023-01-13T21:25:39.695Z,1.38
2023-01-13T21:28:10.422Z,1.70
2023-01-13T21:30:39.254Z,1.17
2023-01-13T21:33:07.580Z,1.52
2023-01-13T21:35:39.220Z,1.45
2023-01-13T21:38:07.507Z,1.88
2023-01-13T21:40:37.134Z,1.73
2023-01-13T21:43:23.205Z,1.48
2023-01-13T21:46:09.493Z,1.52
2023-01-13T21:48:37.746Z,1.38
2023-01-13T21:51:05.979Z,2.05
2023-01-13T21:53:34.224Z,1.48
2023-01-13T21:56:03.826Z,2.25
2023-01-13T21:58:32.040Z,1.42
2023-01-13T22:01:05.858Z,1.88
2023-01-13T22:03:55.544Z,1.50
2023-01-13T22:06:23.938Z,1.70
2023-01-13T22:08:53.846Z,1.40
2023-01-13T22:11:23.540Z,1.00
2023-01-13T22:14:08.772Z,1.58
2023-01-13T22:16:39.321Z,1.95
2023-01-13T22:19:08.474Z,1.67
2023-01-13T22:21:37.108Z,1.67
2023-01-13T22:24:05.389Z,1.52
2023-01-13T22:26:35.562Z,2.13
2023-01-13T22:29:03.844Z,2.00
2023-01-13T22:31:32.449Z,1.50
2023-01-13T22:34:00.854Z,1.98
2023-01-13T22:36:29.269Z,1.77
2023-01-13T22:39:00.519Z,1.98
2023-01-13T22:41:28.999Z,1.63
2023-01-13T22:43:58.702Z,1.17
2023-01-13T22:46:26.965Z,1.65
2023-01-13T22:48:55.867Z,1.55
2023-01-13T22:51:24.272Z,1.52
2023-01-13T22:53:52.488Z,1.55
2023-01-13T22:56:21.885Z,1.73
2023-01-13T22:58:54.153Z,1.10
2023-01-13T23:01:24.367Z,1.77
2023-01-13T23:03:52.903Z,1.90
2023-01-13T23:06:21.922Z,1.25
2023-01-13T23:08:50.299Z,1.63
2023-01-13T23:11:19.640Z,1.85
2023-01-13T23:13:48.213Z,2.10
2023-01-13T23:16:18.057Z,1.42
2023-01-13T23:18:48.262Z,1.42
2023-01-13T23:21:17.817Z,1.80
2023-01-13T23:23:46.061Z,1.40
2023-01-13T23:26:14.674Z,1.77
2023-01-13T23:28:42.916Z,1.75
2023-01-13T23:31:12.100Z,1.27
2023-01-13T23:33:41.186Z,1.67
2023-01-13T23:36:13.879Z,1.40
2023-01-13T23:38:42.168Z,1.55
2023-01-13T23:41:11.369Z,1.60
2023-01-13T23:43:39.572Z,1.52
2023-01-13T23:46:08.685Z,1.08
2023-01-13T23:48:37.394Z,2.25
2023-01-13T23:51:07.340Z,2.40
2023-01-13T23:53:40.066Z,1.42
2023-01-13T23:56:09.833Z,1.55
2023-01-13T23:58:38.238Z,1.27
